Time;durP1;ratioP1;P1;durP2;ratioP2;P2;SDS_P1;SDS_P2;PMS_P1;PMS_P2;Temp;Humidity;BMP_temperature;BMP_pressure;BME280_temperature;BME280_humidity;BME280_pressure;Samples;Min_cycle;Max_cycle;Signal;HPM_P1;HPM_P2
2024/05/05 00:03:17;;;;;;;7.13;5.10;;;;;;;11.08;100.00;100646.63;10943781;26;20425;-17
2024/05/05 00:08:20;;;;;;;7.20;4.65;;;;;;;11.14;100.00;100639.16;10945514;26;20824;-17
2024/05/05 00:13:24;;;;;;;8.55;5.72;;;;;;;11.17;100.00;100638.53;10950506;26;20010;-17
2024/05/05 00:18:31;;;;;;;9.45;6.18;;;;;;;11.14;100.00;100631.88;10939221;26;20079;-17
2024/05/05 00:23:34;;;;;;;9.05;6.28;;;;;;;11.16;100.00;100634.25;10943279;26;22147;-17
2024/05/05 00:28:38;;;;;;;9.50;6.40;;;;;;;11.12;100.00;100628.75;10925433;26;20026;-17
2024/05/05 00:33:45;;;;;;;8.07;5.43;;;;;;;11.11;100.00;100629.84;10939307;26;20112;-17
2024/05/05 00:38:49;;;;;;;8.82;5.90;;;;;;;11.11;100.00;100629.84;10919094;26;20443;-18
2024/05/05 00:43:52;;;;;;;8.57;6.38;;;;;;;11.07;100.00;100631.63;10928804;26;23920;-17
2024/05/05 00:48:59;;;;;;;9.68;6.28;;;;;;;11.15;100.00;100627.31;10937988;26;20012;-16
2024/05/05 00:54:04;;;;;;;9.48;6.25;;;;;;;11.18;100.00;100629.34;10937806;26;20561;-17
2024/05/05 00:59:10;;;;;;;9.90;6.57;;;;;;;11.15;100.00;100620.03;10936106;26;20034;-17
2024/05/05 01:04:16;;;;;;;13.98;6.60;;;;;;;11.15;100.00;100620.03;10942686;26;20019;-16
2024/05/05 01:09:22;;;;;;;11.43;7.30;;;;;;;11.18;100.00;100616.69;10934709;26;20155;-16
2024/05/05 01:14:26;;;;;;;13.00;7.32;;;;;;;11.16;100.00;100620.81;10932615;26;20525;-17
2024/05/05 01:19:32;;;;;;;13.85;7.78;;;;;;;11.21;100.00;100618.72;10923662;26;21218;-17
2024/05/05 01:24:39;;;;;;;14.25;8.48;;;;;;;11.21;100.00;100620.63;10914343;26;20206;-16
2024/05/05 01:29:43;;;;;;;12.27;8.07;;;;;;;11.16;100.00;100618.13;10913631;26;21777;-16
2024/05/05 01:34:46;;;;;;;11.77;8.10;;;;;;;11.18;100.00;100607.84;10918424;26;20016;-15
2024/05/05 01:39:53;;;;;;;12.60;8.50;;;;;;;11.19;100.00;100612.88;10945896;26;24759;-16
2024/05/05 01:44:56;;;;;;;13.90;8.13;;;;;;;11.21;100.00;100616.03;10950471;26;21699;-16
2024/05/05 01:50:00;;;;;;;12.82;7.95;;;;;;;11.16;100.00;100618.91;10937032;26;20476;-16
2024/05/05 01:55:09;;;;;;;12.90;8.07;;;;;;;11.13;100.00;100632.22;10941808;26;20097;-16
2024/05/05 02:00:13;;;;;;;11.63;7.47;;;;;;;11.12;100.00;100625.25;10935132;26;20738;-16
2024/05/05 02:05:17;;;;;;;;;;;;;;;11.03;100.00;100620.72;10909749;26;21926;-17
2024/05/05 02:10:23;;;;;;;11.15;7.25;;;;;;;10.98;100.00;100631.66;10920402;26;19940;-17
2024/05/05 02:15:27;;;;;;;12.65;7.47;;;;;;;10.97;100.00;100632.75;10946156;26;20015;-17
2024/05/05 02:20:31;;;;;;;14.85;8.52;;;;;;;11.02;100.00;100639.84;10935184;26;20011;-16
2024/05/05 02:25:37;;;;;;;15.00;8.75;;;;;;;10.98;100.00;100642.41;10938953;26;20055;-17
2024/05/05 02:30:41;;;;;;;13.73;7.93;;;;;;;10.97;100.00;100651.56;10929751;26;20965;-18
2024/05/05 02:35:45;;;;;;;13.77;7.90;;;;;;;11.03;100.00;100649.50;10932450;26;20019;-17
2024/05/05 02:40:51;;;;;;;13.15;7.88;;;;;;;10.99;100.00;100653.94;10945331;26;20029;-16
2024/05/05 02:45:55;;;;;;;13.20;7.93;;;;;;;10.99;100.00;100648.56;10935845;26;23958;-17
2024/05/05 02:50:59;;;;;;;12.05;7.60;;;;;;;10.95;100.00;100644.94;10943488;26;20125;-17
2024/05/05 02:56:06;;;;;;;11.25;7.25;;;;;;;11.00;100.00;100655.53;10945976;26;20026;-16
2024/05/05 03:01:10;;;;;;;11.95;7.45;;;;;;;10.94;100.00;100654.13;10945042;26;20617;-17
2024/05/05 03:06:23;;;;;;;11.57;7.18;;;;;;;10.91;100.00;100652.09;10945150;26;20050;-17
2024/05/05 03:11:29;;;;;;;12.57;7.50;;;;;;;10.85;100.00;100662.19;10938560;26;22555;-17
2024/05/05 03:16:34;;;;;;;10.35;6.63;;;;;;;10.89;100.00;100663.13;10950460;26;20022;-17
2024/05/05 03:21:44;;;;;;;12.52;7.35;;;;;;;10.88;100.00;100658.06;10963888;26;20023;-16
2024/05/05 03:26:50;;;;;;;13.07;7.38;;;;;;;10.86;100.00;100662.97;10953975;26;20082;-17
2024/05/05 03:31:54;;;;;;;14.05;7.45;;;;;;;10.83;100.00;100664.41;10926834;26;20019;-17
2024/05/05 03:36:58;;;;;;;11.95;6.85;;;;;;;10.85;100.00;100672.16;10952282;26;20444;-17
2024/05/05 03:42:04;;;;;;;13.15;7.60;;;;;;;10.81;100.00;100672.00;10955648;26;20091;-17
2024/05/05 03:47:08;;;;;;;13.48;8.18;;;;;;;10.79;100.00;100670.75;10952714;26;20043;-17
2024/05/05 03:52:12;;;;;;;14.68;8.32;;;;;;;10.77;100.00;100678.34;10898232;26;21220;-17
2024/05/05 03:57:19;;;;;;;13.05;7.22;;;;;;;10.79;100.00;100690.34;10930575;26;20463;-16
2024/05/05 04:02:22;;;;;;;15.65;8.10;;;;;;;10.81;100.00;100693.50;10924825;26;20103;-16
2024/05/05 04:07:30;;;;;;;14.68;8.30;;;;;;;10.76;100.00;100687.50;10944367;26;20075;-17
2024/05/05 04:12:37;;;;;;;14.85;8.18;;;;;;;10.75;100.00;100688.63;10949226;26;20081;-18
2024/05/05 04:17:40;;;;;;;16.65;8.77;;;;;;;10.73;100.00;100680.09;10934100;26;20040;-17
2024/05/05 04:22:44;;;;;;;18.20;9.35;;;;;;;10.69;100.00;100683.38;10908945;26;20977;-17
2024/05/05 04:27:53;;;;;;;16.30;9.32;;;;;;;10.66;100.00;100693.97;10933135;26;20016;-16
2024/05/05 04:32:56;;;;;;;16.52;9.20;;;;;;;10.65;100.00;100692.41;10932496;26;20265;-16
2024/05/05 04:38:00;;;;;;;15.80;8.85;;;;;;;10.69;100.00;100696.81;10916072;26;20090;-16
2024/05/05 04:43:07;;;;;;;18.83;10.00;;;;;;;10.66;100.00;100702.03;10934884;26;20465;-21
2024/05/05 04:48:11;;;;;;;19.38;10.48;;;;;;;10.67;100.00;100706.31;10915978;26;20032;-20
2024/05/05 04:53:14;;;;;;;18.15;8.98;;;;;;;10.76;100.00;100714.38;10924107;26;20006;-20
2024/05/05 04:58:21;;;;;;;20.40;10.57;;;;;;;10.81;100.00;100716.88;10934566;26;20022;-21
2024/05/05 05:03:25;;;;;;;24.30;11.80;;;;;;;10.99;100.00;100718.44;10940437;26;20676;-20
2024/05/05 05:08:29;;;;;;;20.08;10.60;;;;;;;10.86;100.00;100724.78;10932504;26;20020;-20
2024/05/05 05:13:35;;;;;;;19.15;10.38;;;;;;;10.86;100.00;100722.88;10932406;26;20020;-19
2024/05/05 05:18:39;;;;;;;18.02;10.15;;;;;;;11.02;100.00;100732.03;10936509;26;20018;-19
2024/05/05 05:23:42;;;;;;;18.58;10.15;;;;;;;11.05;100.00;100741.34;10926658;26;20032;-20
2024/05/05 05:28:49;;;;;;;17.50;9.48;;;;;;;11.11;100.00;100745.44;10939173;26;21054;-20
2024/05/05 05:33:53;;;;;;;18.60;10.15;;;;;;;10.98;100.00;100741.06;10934523;26;20182;-20
2024/05/05 05:38:57;;;;;;;18.15;9.70;;;;;;;10.93;100.00;100749.28;10929554;26;20015;-21
2024/05/05 05:44:03;;;;;;;21.15;10.20;;;;;;;10.84;100.00;100754.66;10933130;26;20251;-20
2024/05/05 05:49:07;;;;;;;26.58;12.88;;;;;;;10.80;100.00;100751.03;10932787;26;21659;-20
2024/05/05 05:54:11;;;;;;;29.95;13.80;;;;;;;10.95;100.00;100760.50;10933729;26;20023;-20
2024/05/05 05:59:17;;;;;;;27.95;13.13;;;;;;;11.03;100.00;100762.38;10938709;26;20077;-20
2024/05/05 06:04:21;;;;;;;30.95;14.07;;;;;;;11.01;100.00;100759.22;10933862;26;20128;-21
2024/05/05 06:09:25;;;;;;;39.08;15.77;;;;;;;11.11;100.00;100766.94;10936906;26;20022;-20
2024/05/05 06:14:32;;;;;;;35.65;15.45;;;;;;;11.29;100.00;100763.09;10918190;26;20019;-21
2024/05/05 06:19:35;;;;;;;32.13;15.07;;;;;;;11.33;100.00;100766.72;10935770;26;20718;-20
2024/05/05 06:24:39;;;;;;;34.33;16.33;;;;;;;11.22;100.00;100762.78;10946479;26;20095;-20
2024/05/05 06:29:49;;;;;;;33.47;14.60;;;;;;;11.30;100.00;100771.94;10945451;26;20023;-16
2024/05/05 06:34:53;;;;;;;37.05;16.67;;;;;;;11.39;100.00;100779.97;10940638;26;20021;-16
2024/05/05 06:39:57;;;;;;;38.90;16.80;;;;;;;11.59;100.00;100769.28;10940107;26;20708;-17
2024/05/05 06:45:04;;;;;;;39.58;17.33;;;;;;;11.84;100.00;100785.63;10935259;26;20075;-16
2024/05/05 06:50:08;;;;;;;36.97;16.92;;;;;;;11.82;100.00;100790.56;10905048;26;20112;-17
2024/05/05 06:55:12;;;;;;;36.10;16.08;;;;;;;11.67;100.00;100797.25;10936959;26;20003;-17
2024/05/05 07:00:18;;;;;;;34.90;16.17;;;;;;;11.74;100.00;100788.66;10948918;26;20585;-17
2024/05/05 07:05:22;;;;;;;36.08;14.93;;;;;;;11.74;100.00;100796.75;10922341;26;24626;-17
2024/05/05 07:10:26;;;;;;;32.35;15.32;;;;;;;11.78;100.00;100805.78;10948175;26;20288;-15
2024/05/05 07:15:32;;;;;;;30.30;13.02;;;;;;;11.64;100.00;100804.06;10922281;26;20034;-16
2024/05/05 07:20:36;;;;;;;27.08;12.63;;;;;;;11.70;100.00;100799.28;10935682;26;20022;-19
2024/05/05 07:25:40;;;;;;;27.70;12.10;;;;;;;11.85;100.00;100798.78;10940558;26;20031;-16
2024/05/05 07:30:46;;;;;;;29.67;12.20;;;;;;;11.98;100.00;100805.81;10923509;26;22345;-16
2024/05/05 07:35:50;;;;;;;28.42;12.13;;;;;;;12.21;100.00;100797.44;10918073;26;21316;-17
2024/05/05 07:40:54;;;;;;;29.35;12.90;;;;;;;12.37;100.00;100808.44;10934555;26;20115;-16
2024/05/05 07:46:00;;;;;;;26.83;12.00;;;;;;;12.32;99.81;100817.50;10937042;26;20014;-17
2024/05/05 07:51:04;;;;;;;29.60;12.85;;;;;;;12.51;100.00;100815.13;10941679;26;20583;-18
2024/05/05 07:56:08;;;;;;;25.95;12.13;;;;;;;12.38;99.44;100823.47;10936146;26;20578;-17
2024/05/05 08:01:15;;;;;;;25.38;11.52;;;;;;;12.17;98.09;100826.13;10936512;26;20437;-16
2024/05/05 08:06:19;;;;;;;23.23;10.82;;;;;;;12.04;98.77;100829.84;10930217;26;20517;-16
2024/05/05 08:11:23;;;;;;;22.88;10.80;;;;;;;11.70;100.00;100833.47;10932100;26;20023;-16
2024/05/05 08:16:29;;;;;;;20.90;9.82;;;;;;;11.80;100.00;100847.41;10939702;26;20492;-17
2024/05/05 08:21:33;;;;;;;22.75;10.48;;;;;;;11.76;99.62;100841.06;10921252;26;20807;-17
2024/05/05 08:26:37;;;;;;;22.05;10.52;;;;;;;11.64;99.99;100849.00;10942521;26;20565;-16
2024/05/05 08:31:43;;;;;;;19.38;9.70;;;;;;;11.83;100.00;100854.81;10942424;26;21333;-16
2024/05/05 08:36:47;;;;;;;19.42;9.65;;;;;;;11.97;99.55;100854.59;10940456;26;23929;-16
2024/05/05 08:41:52;;;;;;;19.40;9.50;;;;;;;11.65;98.71;100853.28;10927764;26;20806;-17
2024/05/05 08:46:59;;;;;;;21.05;9.63;;;;;;;11.81;99.89;100857.03;10913826;26;20014;-18
2024/05/05 08:52:05;;;;;;;19.90;9.93;;;;;;;12.07;97.87;100856.91;10932885;26;20047;-16
2024/05/05 08:57:12;;;;;;;20.30;9.15;;;;;;;12.90;95.19;100865.09;10931439;26;20011;-17
2024/05/05 09:02:19;;;;;;;21.15;9.63;;;;;;;12.65;94.37;100863.41;10946212;26;20112;-16
2024/05/05 09:07:23;;;;;;;20.50;8.95;;;;;;;12.70;94.93;100860.50;10941745;26;20015;-16
2024/05/05 09:12:28;;;;;;;19.52;8.93;;;;;;;12.88;90.57;100870.03;10941707;26;20011;-16
2024/05/05 09:17:34;;;;;;;;;;;;;;;13.13;91.58;100870.13;10902639;26;20198;-17
2024/05/05 09:22:38;;;;;;;20.00;8.10;;;;;;;13.54;88.64;100869.25;10930280;26;22080;-16
2024/05/05 09:27:41;;;;;;;20.17;9.00;;;;;;;14.24;85.47;100866.47;10949200;26;21756;-17
2024/05/05 09:32:49;;;;;;;18.92;8.38;;;;;;;14.86;87.12;100868.72;10949915;26;20011;-17
2024/05/05 09:37:54;;;;;;;21.20;9.02;;;;;;;15.05;82.58;100870.81;10929203;26;20685;-17
2024/05/05 09:42:58;;;;;;;18.92;9.02;;;;;;;15.44;81.09;100880.00;10948661;26;20023;-16
2024/05/05 09:48:07;;;;;;;;;;;;;;;15.66;80.54;100871.28;10960982;26;20014;-15
2024/05/05 09:53:21;;;;;;;17.65;7.53;;;;;;;16.01;75.17;100881.41;10953231;26;20742;-16
2024/05/05 09:58:29;;;;;;;15.85;7.10;;;;;;;15.99;76.41;100881.75;10952872;26;20108;-15
2024/05/05 10:03:36;;;;;;;15.52;7.05;;;;;;;15.80;71.36;100877.03;10935498;26;21359;-16
2024/05/05 10:08:41;;;;;;;15.95;6.82;;;;;;;16.33;71.36;100872.13;10970416;26;20015;-16
2024/05/05 10:13:45;;;;;;;14.90;7.35;;;;;;;16.58;70.67;100874.59;10951001;26;20029;-16
2024/05/05 10:18:51;;;;;;;14.27;6.97;;;;;;;17.01;70.15;100873.56;10961243;26;21145;-15
2024/05/05 10:23:55;;;;;;;13.40;6.55;;;;;;;17.10;69.96;100870.63;10967055;26;20022;-17
2024/05/05 10:28:59;;;;;;;11.98;5.80;;;;;;;17.79;64.01;100863.31;10977245;26;21795;-16
2024/05/05 10:34:06;;;;;;;13.05;6.10;;;;;;;18.54;65.94;100868.72;10965152;26;20011;-18
2024/05/05 10:39:11;;;;;;;13.93;5.78;;;;;;;19.07;63.39;100865.88;10946586;26;20050;-16
2024/05/05 10:44:15;;;;;;;10.93;5.70;;;;;;;19.05;62.30;100861.97;10938300;26;20473;-17
2024/05/05 10:49:21;;;;;;;;;;;;;;;18.62;58.22;100862.22;10965046;26;20104;-16
2024/05/05 10:54:25;;;;;;;8.88;4.78;;;;;;;18.64;63.16;100870.03;10975634;26;20543;-16
2024/05/05 10:59:29;;;;;;;;;;;;;;;18.12;62.99;100870.84;10959451;26;20950;-16
2024/05/05 11:04:35;;;;;;;9.35;4.60;;;;;;;19.02;63.35;100873.59;10937259;26;19932;-17
2024/05/05 11:09:39;;;;;;;9.85;4.93;;;;;;;18.30;66.73;100864.53;10946668;26;20007;-18
2024/05/05 11:14:46;;;;;;;;;;;;;;;18.17;61.93;100859.69;10933952;26;20011;-16
2024/05/05 11:19:52;;;;;;;10.10;4.60;;;;;;;18.40;61.52;100860.38;10945111;26;19946;-17
2024/05/05 11:24:57;;;;;;;7.13;4.13;;;;;;;17.87;56.59;100865.03;10936204;26;20590;-16
2024/05/05 11:30:01;;;;;;;4.97;2.83;;;;;;;17.57;60.44;100865.69;10944271;26;20680;-16
2024/05/05 11:35:07;;;;;;;;;;;;;;;19.32;58.64;100871.63;10940757;26;20027;-15
2024/05/05 11:40:41;;;;;;;4.40;2.33;;;;;;;20.02;58.04;100862.53;10941740;26;20319;-16
2024/05/05 11:45:45;;;;;;;4.70;2.78;;;;;;;19.70;57.98;100856.03;10940133;26;20025;-16
2024/05/05 11:51:42;;;;;;;5.25;2.65;;;;;;;20.30;57.96;100845.53;10923137;26;20011;-17
2024/05/05 11:56:49;;;;;;;6.03;3.15;;;;;;;20.11;58.70;100846.59;10944837;26;20029;-18
2024/05/05 12:02:03;;;;;;;5.47;3.03;;;;;;;19.94;56.35;100846.47;10942417;26;21935;-17
2024/05/05 12:07:18;;;;;;;4.97;2.97;;;;;;;20.56;52.33;100844.53;10948595;26;20833;-17
2024/05/05 12:12:25;;;;;;;5.15;3.20;;;;;;;20.60;49.12;100839.88;10943433;26;20022;-17
2024/05/05 12:18:02;;;;;;;4.60;3.00;;;;;;;20.09;48.35;100840.75;10936520;26;20482;-17
2024/05/05 12:23:09;;;;;;;7.03;3.72;;;;;;;19.82;52.46;100837.44;10661513;26;24419;-17
2024/05/05 12:28:52;;;;;;;3.97;2.65;;;;;;;20.40;50.35;100830.41;10886513;26;20020;-17
2024/05/05 12:33:58;;;;;;;4.70;3.53;;;;;;;19.41;51.81;100819.56;10898428;26;20768;-17
2024/05/05 12:39:20;;;;;;;5.50;3.10;;;;;;;20.35;52.52;100814.41;10946194;26;20011;-17
2024/05/05 12:44:24;;;;;;;5.55;4.05;;;;;;;18.66;53.61;100821.47;10938922;26;20076;-17
2024/05/05 12:49:30;;;;;;;4.88;3.40;;;;;;;19.22;57.04;100824.06;10943527;26;20117;-18
2024/05/05 12:54:34;;;;;;;5.32;3.70;;;;;;;20.93;55.74;100821.66;10966575;26;20011;-17
2024/05/05 12:59:39;;;;;;;6.53;4.78;;;;;;;19.23;50.26;100819.41;10965464;26;22563;-16
2024/05/05 13:04:45;;;;;;;6.40;4.50;;;;;;;19.20;57.54;100815.47;10961128;26;24922;-16
2024/05/05 13:09:49;;;;;;;6.55;4.90;;;;;;;19.89;51.78;100810.22;10943850;26;20019;-17
2024/05/05 13:14:53;;;;;;;7.32;4.55;;;;;;;20.32;49.03;100810.47;10932585;26;20012;-17
2024/05/05 13:20:00;;;;;;;5.20;4.25;;;;;;;20.41;49.40;100805.47;10903804;26;20019;-17
2024/05/05 13:25:04;;;;;;;5.10;3.90;;;;;;;20.45;48.45;100800.03;10936569;26;20352;-16
2024/05/05 13:30:09;;;;;;;5.75;4.78;;;;;;;20.45;51.82;100792.66;10942372;26;20007;-18
2024/05/05 13:35:15;;;;;;;5.50;4.22;;;;;;;20.49;51.91;100787.97;10941702;26;20022;-18
2024/05/05 13:40:19;;;;;;;6.53;4.10;;;;;;;20.36;50.56;100785.94;10948605;26;20597;-16
2024/05/05 13:45:23;;;;;;;4.85;3.88;;;;;;;20.02;46.66;100786.19;10957691;26;20130;-16
2024/05/05 13:50:30;;;;;;;6.25;3.90;;;;;;;20.18;46.92;100783.13;10962321;26;20027;-16
2024/05/05 13:55:33;;;;;;;4.28;3.45;;;;;;;20.32;48.14;100782.44;10933743;26;20111;-17
2024/05/05 14:00:37;;;;;;;6.07;4.32;;;;;;;19.98;49.65;100776.38;10938484;26;20629;-17
2024/05/05 14:05:44;;;;;;;8.05;3.90;;;;;;;20.71;47.10;100774.41;10913067;26;20484;-16
2024/05/05 14:10:47;;;;;;;7.05;3.97;;;;;;;20.21;49.90;100774.19;10935147;26;20025;-17
2024/05/05 14:15:51;;;;;;;4.90;3.95;;;;;;;20.43;46.56;100770.38;10947480;26;20022;-17
2024/05/05 14:20:58;;;;;;;6.97;4.13;;;;;;;20.87;48.48;100763.91;10921435;26;20016;-18
2024/05/05 14:26:02;;;;;;;4.70;3.88;;;;;;;20.50;45.36;100764.22;10933724;26;22367;-17
2024/05/05 14:31:06;;;;;;;4.80;3.60;;;;;;;20.25;46.28;100753.16;10917003;26;20027;-16
2024/05/05 14:36:13;;;;;;;4.70;3.47;;;;;;;20.40;47.29;100751.28;10921821;26;20110;-16
2024/05/05 14:41:17;;;;;;;3.15;2.72;;;;;;;20.83;48.18;100750.25;10924537;26;20058;-17
2024/05/05 14:46:20;;;;;;;4.68;3.28;;;;;;;21.16;50.77;100743.66;10898466;26;20007;-17
2024/05/05 14:51:27;;;;;;;3.92;2.35;;;;;;;20.44;44.21;100732.97;10934429;26;21866;-16
2024/05/05 14:56:31;;;;;;;2.60;1.90;;;;;;;21.48;47.07;100742.91;10929168;26;20112;-16
2024/05/05 15:01:35;;;;;;;2.15;1.70;;;;;;;22.12;45.15;100740.81;10922735;26;20042;-16
2024/05/05 15:06:41;;;;;;;4.35;2.10;;;;;;;21.20;47.94;100738.22;10909085;26;20036;-17
2024/05/05 15:11:45;;;;;;;3.03;1.95;;;;;;;21.13;47.13;100735.47;10915198;26;20015;-17
2024/05/05 15:16:49;;;;;;;2.85;1.88;;;;;;;21.42;47.39;100725.34;10879107;26;20867;-16
2024/05/05 15:21:56;;;;;;;2.60;1.90;;;;;;;20.51;47.45;100722.09;10912147;26;20033;-16
2024/05/05 15:26:59;;;;;;;3.45;1.98;;;;;;;20.85;46.89;100719.84;10899121;26;20288;-16
2024/05/05 15:32:03;;;;;;;2.92;1.98;;;;;;;20.54;46.55;100716.66;10917919;26;20089;-16
2024/05/05 15:37:10;;;;;;;3.25;1.95;;;;;;;20.26;47.65;100702.91;10911123;26;20889;-17
2024/05/05 15:42:14;;;;;;;2.35;1.77;;;;;;;20.19;49.52;100706.41;10937318;26;20840;-17
2024/05/05 15:47:18;;;;;;;2.30;1.80;;;;;;;20.15;49.01;100711.06;10917249;26;20720;-17
2024/05/05 15:52:24;;;;;;;2.45;1.70;;;;;;;20.41;48.31;100709.19;10903277;26;20056;-17
2024/05/05 15:57:28;;;;;;;2.05;1.50;;;;;;;19.58;46.60;100713.47;10912648;26;20086;-18
2024/05/05 16:02:32;;;;;;;2.75;1.90;;;;;;;19.40;46.43;100701.66;10930897;26;21762;-17
2024/05/05 16:07:38;;;;;;;2.90;1.60;;;;;;;19.36;49.42;100706.28;10926590;26;20045;-17
2024/05/05 16:12:42;;;;;;;2.30;1.52;;;;;;;18.80;49.43;100704.63;10930419;26;20011;-18
2024/05/05 16:17:46;;;;;;;2.45;1.55;;;;;;;18.90;48.67;100701.22;10941000;26;20011;-17
2024/05/05 16:22:52;;;;;;;2.00;1.40;;;;;;;18.87;53.48;100707.44;10934314;26;20015;-17
2024/05/05 16:27:56;;;;;;;2.80;1.30;;;;;;;18.86;47.17;100702.34;10941707;26;20023;-18
2024/05/05 16:33:00;;;;;;;1.80;1.20;;;;;;;18.82;49.27;100698.81;10930424;26;20029;-17
2024/05/05 16:38:06;;;;;;;1.80;1.30;;;;;;;18.73;52.18;100703.78;10927642;26;22625;-18
2024/05/05 16:43:10;;;;;;;2.33;1.17;;;;;;;18.58;50.45;100700.91;10931347;26;20026;-17
2024/05/05 16:48:14;;;;;;;1.85;1.20;;;;;;;18.39;50.36;100690.22;10931893;26;20011;-17
2024/05/05 16:53:21;;;;;;;1.65;1.10;;;;;;;18.42;50.15;100694.91;10930488;26;20016;-17
2024/05/05 16:58:24;;;;;;;2.58;1.73;;;;;;;18.38;49.57;100691.38;10934384;26;20030;-17
2024/05/05 17:03:28;;;;;;;1.85;1.10;;;;;;;18.30;47.89;100687.78;10930261;26;20090;-18
2024/05/05 17:08:35;;;;;;;1.40;1.00;;;;;;;18.05;47.83;100677.75;10932722;26;20084;-17
2024/05/05 17:13:39;;;;;;;1.65;1.10;;;;;;;18.09;48.40;100664.97;10926488;26;20098;-17
2024/05/05 17:18:42;;;;;;;2.85;0.90;;;;;;;17.90;53.69;100663.22;10932768;26;20010;-17
2024/05/05 17:23:49;;;;;;;;;;;;;;;17.75;58.48;100659.50;10934543;26;20105;-16
2024/05/05 17:28:52;;;;;;;1.77;1.10;;;;;;;17.63;59.29;100660.50;10919977;26;22145;-17
2024/05/05 17:33:56;;;;;;;1.90;0.98;;;;;;;17.66;54.53;100662.50;10938049;26;20123;-17
2024/05/05 17:39:02;;;;;;;;;;;;;;;17.68;54.20;100659.41;10935619;26;20018;-18
2024/05/05 17:44:06;;;;;;;2.70;1.02;;;;;;;17.61;52.55;100660.09;10906394;26;19932;-18
2024/05/05 17:49:10;;;;;;;1.40;1.00;;;;;;;17.59;56.33;100665.13;10923604;26;24801;-17
2024/05/05 17:54:17;;;;;;;1.30;0.90;;;;;;;17.49;54.71;100654.88;10937419;26;20026;-17
2024/05/05 17:59:21;;;;;;;1.88;0.90;;;;;;;17.34;55.45;100655.84;10934675;26;20104;-17
2024/05/05 18:04:24;;;;;;;;;;;;;;;17.23;56.58;100641.31;10918411;26;20022;-17
2024/05/05 18:09:31;;;;;;;1.55;1.00;;;;;;;17.14;60.18;100663.28;10943029;26;19939;-17
2024/05/05 18:14:35;;;;;;;1.52;0.90;;;;;;;17.01;58.12;100659.19;10900002;26;20026;-15
2024/05/05 18:19:39;;;;;;;1.73;1.05;;;;;;;16.94;59.74;100667.97;10936922;26;20015;-17
2024/05/05 18:24:45;;;;;;;;;;;;;;;16.55;70.31;100645.59;10939998;26;20021;-17
2024/05/05 18:29:49;;;;;;;1.65;0.90;;;;;;;16.36;75.99;100646.44;10921260;26;19933;-17
2024/05/05 18:34:53;;;;;;;1.80;1.08;;;;;;;16.32;78.75;100656.41;10930808;26;21454;-16
2024/05/05 18:39:59;;;;;;;;;;;;;;;16.10;78.57;100654.41;10900902;26;22637;-17
2024/05/05 18:45:03;;;;;;;1.83;1.30;;;;;;;15.94;75.61;100642.84;10928002;26;22308;-16
2024/05/05 18:50:07;;;;;;;1.60;1.20;;;;;;;16.01;75.74;100645.69;10904627;26;20025;-17
2024/05/05 18:55:14;;;;;;;3.17;1.17;;;;;;;16.03;74.69;100652.31;10935471;26;20020;-18
2024/05/05 19:00:18;;;;;;;1.55;1.10;;;;;;;16.03;76.09;100659.66;10947032;26;20015;-17
2024/05/05 19:05:21;;;;;;;2.33;1.13;;;;;;;15.96;76.51;100659.53;10943450;26;20096;-16
2024/05/05 19:10:28;;;;;;;2.08;1.20;;;;;;;15.70;77.69;100652.03;10948878;26;20021;-15
2024/05/05 19:15:32;;;;;;;3.47;1.60;;;;;;;15.56;79.42;100655.22;10947217;26;20018;-17
2024/05/05 19:20:41;;;;;;;4.00;1.85;;;;;;;15.63;79.53;100666.19;10892982;26;20012;-17
2024/05/05 19:25:48;;;;;;;3.35;1.85;;;;;;;15.67;74.12;100655.44;10913742;26;20010;-17
2024/05/05 19:30:53;;;;;;;2.28;1.42;;;;;;;15.21;83.11;100655.19;10928286;26;20011;-17
2024/05/05 19:35:56;;;;;;;2.70;1.70;;;;;;;15.29;80.16;100662.34;10933116;26;21000;-19
2024/05/05 19:41:03;;;;;;;2.80;1.80;;;;;;;15.31;80.00;100659.28;10921008;26;20010;-18
2024/05/05 19:46:07;;;;;;;2.38;1.75;;;;;;;15.16;80.52;100648.13;10890001;26;20877;-17
2024/05/05 19:51:11;;;;;;;3.67;2.42;;;;;;;15.11;82.01;100658.41;10913688;26;20059;-16
2024/05/05 19:56:17;;;;;;;3.20;2.33;;;;;;;15.05;80.43;100662.53;10950610;26;21686;-17
2024/05/05 20:01:21;;;;;;;3.55;2.50;;;;;;;14.88;81.28;100655.53;10934968;26;20015;-17
2024/05/05 20:06:25;;;;;;;4.05;2.25;;;;;;;14.70;83.37;100657.00;10929413;26;20023;-17
2024/05/05 20:11:32;;;;;;;2.80;2.20;;;;;;;14.44;86.11;100649.38;10943672;26;20808;-18
2024/05/05 20:16:35;;;;;;;4.32;2.30;;;;;;;14.20;88.13;100644.84;10950016;26;25131;-18
2024/05/05 20:21:39;;;;;;;4.78;2.20;;;;;;;14.05;89.23;100648.31;10910555;26;20034;-17
2024/05/05 20:26:46;;;;;;;5.78;3.05;;;;;;;13.93;88.97;100653.75;10913350;26;20011;-17
2024/05/05 20:31:50;;;;;;;3.38;2.65;;;;;;;13.94;89.82;100660.72;10914970;26;20085;-17
2024/05/05 20:36:54;;;;;;;;;;;;;;;13.81;92.23;100643.78;10924321;26;20011;-17
2024/05/05 20:42:00;;;;;;;3.63;2.40;;;;;;;13.67;92.38;100651.47;10916839;26;19933;-18
2024/05/05 20:47:04;;;;;;;4.65;2.78;;;;;;;13.69;92.13;100652.69;10944382;26;20026;-17
2024/05/05 20:52:08;;;;;;;4.85;2.63;;;;;;;13.71;91.09;100661.22;10940594;26;20014;-17
2024/05/05 20:57:15;;;;;;;;;;;;;;;13.81;92.98;100665.38;10930364;26;21218;-17
2024/05/05 21:02:19;;;;;;;3.00;2.20;;;;;;;13.72;94.67;100668.19;10914675;26;19932;-17
2024/05/05 21:07:22;;;;;;;5.10;2.80;;;;;;;13.53;94.61;100662.59;10925234;26;20060;-18
2024/05/05 21:12:29;;;;;;;3.63;2.72;;;;;;;13.48;95.23;100657.38;10941681;26;21615;-16
2024/05/05 21:17:33;;;;;;;4.47;2.85;;;;;;;13.47;94.74;100659.31;10936070;26;20015;-17
2024/05/05 21:22:37;;;;;;;5.22;3.40;;;;;;;13.50;94.53;100660.53;10936512;26;24735;-16
2024/05/05 21:27:43;;;;;;;3.83;2.78;;;;;;;13.43;95.03;100649.53;10940112;26;26141;-16
2024/05/05 21:32:47;;;;;;;6.78;3.30;;;;;;;13.44;94.88;100654.59;10926025;26;20022;-16
2024/05/05 21:37:52;;;;;;;6.00;3.75;;;;;;;13.51;94.16;100656.75;10928311;26;20413;-18
2024/05/05 21:42:58;;;;;;;4.50;3.13;;;;;;;13.48;95.06;100662.78;10909519;26;20139;-18
2024/05/05 21:48:02;;;;;;;4.47;2.80;;;;;;;13.38;97.06;100663.25;10909760;26;20050;-17
2024/05/05 21:53:06;;;;;;;7.00;3.80;;;;;;;13.32;97.11;100659.22;10912377;26;20011;-18
2024/05/05 21:58:13;;;;;;;5.63;3.40;;;;;;;13.24;97.69;100663.59;10950704;26;20019;-19
2024/05/05 22:03:17;;;;;;;6.75;4.03;;;;;;;13.16;97.07;100667.97;10899139;26;20097;-17
2024/05/05 22:08:20;;;;;;;4.95;3.60;;;;;;;13.19;98.06;100655.72;10913178;26;20980;-17
2024/05/05 22:13:27;;;;;;;5.35;3.25;;;;;;;12.97;98.89;100643.47;10923413;26;20021;-17
2024/05/05 22:18:31;;;;;;;5.18;3.13;;;;;;;12.68;100.00;100649.06;10939752;26;20019;-15
2024/05/05 22:23:35;;;;;;;7.28;3.70;;;;;;;12.58;100.00;100640.25;10923836;26;26554;-18
2024/05/05 22:28:41;;;;;;;4.78;3.30;;;;;;;12.40;100.00;100643.47;10931056;26;20023;-18
2024/05/05 22:33:45;;;;;;;6.43;3.95;;;;;;;12.25;100.00;100624.09;10896499;26;20022;-17
2024/05/05 22:38:49;;;;;;;6.43;4.55;;;;;;;11.97;100.00;100609.66;10925866;26;25946;-17
2024/05/05 22:43:55;;;;;;;6.72;4.28;;;;;;;12.01;100.00;100610.56;10931729;26;20011;-16
2024/05/05 22:48:59;;;;;;;6.53;3.92;;;;;;;11.94;100.00;100607.63;10879637;26;20117;-17
2024/05/05 22:54:03;;;;;;;5.30;3.88;;;;;;;11.33;100.00;100599.19;10933822;26;20012;-17
2024/05/05 22:59:09;;;;;;;7.45;3.75;;;;;;;11.32;100.00;100605.69;10904798;26;20019;-16
2024/05/05 23:04:13;;;;;;;5.53;3.95;;;;;;;11.39;100.00;100603.28;10929726;26;20010;-16
2024/05/05 23:09:17;;;;;;;8.80;4.10;;;;;;;11.30;100.00;100597.16;10930406;26;21162;-16
2024/05/05 23:14:24;;;;;;;6.35;4.40;;;;;;;11.29;100.00;100582.16;10948316;26;20029;-17